createdAt,value
2022-11-05T00:02:23.698Z,7.56
2022-11-05T00:05:09.664Z,7.58
2022-11-05T00:07:59.051Z,7.60
2022-11-05T00:10:28.987Z,7.61
2022-11-05T00:13:17.257Z,7.62
2022-11-05T00:16:03.935Z,7.59
2022-11-05T00:18:31.195Z,7.54
2022-11-05T00:20:58.409Z,7.53
2022-11-05T00:23:44.071Z,7.55
2022-11-05T00:26:12.028Z,7.57
2022-11-05T00:28:43.921Z,7.57
2022-11-05T00:31:14.021Z,7.59
2022-11-05T00:33:42.540Z,7.63
2022-11-05T00:36:12.287Z,7.66
2022-11-05T00:38:39.444Z,7.67
2022-11-05T00:41:06.476Z,7.69
2022-11-05T00:43:52.588Z,7.68
2022-11-05T00:46:19.769Z,7.64
2022-11-05T00:49:05.562Z,7.61
2022-11-05T00:51:32.846Z,7.58
2022-11-05T00:53:59.946Z,7.54
2022-11-05T00:56:27.020Z,7.55
2022-11-05T00:58:55.675Z,7.55
2022-11-05T01:01:23.127Z,7.55
2022-11-05T01:03:51.919Z,7.57
2022-11-05T01:06:19.968Z,7.57
2022-11-05T01:08:47.425Z,7.58
2022-11-05T01:11:37.001Z,7.55
2022-11-05T01:14:08.286Z,7.55
2022-11-05T01:16:36.100Z,7.57
2022-11-05T01:19:04.428Z,7.56
2022-11-05T01:21:31.764Z,7.56
2022-11-05T01:23:59.310Z,7.51
2022-11-05T01:26:26.444Z,7.50
2022-11-05T01:29:00.465Z,7.51
2022-11-05T01:31:28.575Z,7.51
2022-11-05T01:33:55.708Z,7.50
2022-11-05T01:36:22.907Z,7.52
2022-11-05T01:38:49.952Z,7.52
2022-11-05T01:41:18.937Z,7.51
2022-11-05T01:43:55.531Z,7.52
2022-11-05T01:46:34.653Z,7.53
2022-11-05T01:49:17.405Z,7.56
2022-11-05T01:51:44.977Z,7.62
2022-11-05T01:54:15.008Z,7.64
2022-11-05T01:56:49.291Z,7.63
2022-11-05T01:59:19.890Z,7.63
2022-11-05T02:01:47.052Z,7.66
2022-11-05T02:04:31.052Z,7.65
2022-11-05T02:06:58.325Z,7.68
2022-11-05T02:09:29.737Z,7.69
2022-11-05T02:11:57.660Z,7.70
2022-11-05T02:14:25.454Z,7.69
2022-11-05T02:17:13.701Z,7.70
2022-11-05T02:20:02.625Z,7.68
2022-11-05T02:22:48.160Z,7.67
2022-11-05T02:25:20.929Z,7.69
2022-11-05T02:28:01.610Z,7.67
2022-11-05T02:31:12.620Z,7.69
2022-11-05T02:33:41.891Z,7.69
2022-11-05T02:36:28.899Z,7.68
2022-11-05T02:39:04.211Z,7.69
2022-11-05T02:41:46.398Z,7.67
2022-11-05T02:44:25.411Z,7.67
2022-11-05T02:47:07.610Z,7.64
2022-11-05T02:50:11.460Z,7.65
2022-11-05T02:53:07.860Z,7.64
2022-11-05T02:55:42.039Z,7.64
2022-11-05T02:58:09.985Z,7.63
2022-11-05T03:00:52.981Z,7.66
2022-11-05T03:03:27.091Z,7.65
2022-11-05T03:05:58.193Z,7.64
2022-11-05T03:08:43.638Z,7.64
2022-11-05T03:11:14.510Z,7.65
2022-11-05T03:13:54.432Z,7.68
2022-11-05T03:16:46.176Z,7.69
2022-11-05T03:19:19.379Z,7.72
2022-11-05T03:21:58.190Z,7.72
2022-11-05T03:24:29.716Z,7.74
2022-11-05T03:27:01.003Z,7.76
2022-11-05T03:29:33.392Z,7.75
2022-11-05T03:32:02.009Z,7.75
2022-11-05T03:34:33.868Z,7.76
2022-11-05T03:37:02.801Z,7.78
2022-11-05T03:39:34.060Z,7.78
2022-11-05T03:42:06.624Z,7.79
2022-11-05T03:44:36.263Z,7.82
2022-11-05T03:47:06.964Z,7.83
2022-11-05T03:50:35.803Z,7.85
2022-11-05T03:53:29.509Z,7.85
2022-11-05T03:56:03.554Z,7.86
2022-11-05T03:58:30.729Z,7.86
2022-11-05T04:01:00.510Z,7.87
2022-11-05T04:03:27.669Z,7.85
2022-11-05T04:06:14.674Z,7.86
2022-11-05T04:09:00.017Z,7.87
2022-11-05T04:11:45.947Z,7.87
2022-11-05T04:14:13.168Z,7.84
2022-11-05T04:16:58.852Z,7.85
2022-11-05T04:19:44.326Z,7.84
2022-11-05T04:22:29.731Z,7.85
2022-11-05T04:24:56.805Z,7.85
2022-11-05T04:27:23.902Z,7.87
2022-11-05T04:30:09.361Z,7.87
2022-11-05T04:32:36.547Z,7.90
2022-11-05T04:35:03.659Z,7.90
2022-11-05T04:37:30.745Z,7.90
2022-11-05T04:39:57.815Z,7.93
2022-11-05T04:42:24.892Z,7.96
2022-11-05T04:44:52.043Z,8.00
2022-11-05T04:47:19.091Z,8.00
2022-11-05T04:49:46.197Z,8.01
2022-11-05T04:52:13.291Z,8.02
2022-11-05T04:54:40.598Z,8.03
2022-11-05T04:57:08.260Z,8.02
2022-11-05T04:59:35.400Z,8.03
2022-11-05T05:02:02.556Z,8.05
2022-11-05T05:04:29.710Z,8.03
2022-11-05T05:06:56.797Z,8.00
2022-11-05T05:09:23.876Z,7.97
2022-11-05T05:11:50.946Z,7.94
2022-11-05T05:14:18.125Z,7.91
2022-11-05T05:16:45.196Z,7.89
2022-11-05T05:19:12.261Z,7.87
2022-11-05T05:21:39.432Z,7.87
2022-11-05T05:24:14.538Z,7.85
2022-11-05T05:26:46.890Z,7.83
2022-11-05T05:29:14.149Z,7.85
2022-11-05T05:31:41.776Z,7.87
2022-11-05T05:34:11.824Z,7.90
2022-11-05T05:36:38.944Z,7.91
2022-11-05T05:39:07.366Z,7.92
2022-11-05T05:41:34.580Z,7.93
2022-11-05T05:44:01.677Z,7.93
2022-11-05T05:46:28.737Z,7.94
2022-11-05T05:48:55.803Z,7.95
2022-11-05T05:51:23.085Z,7.95
2022-11-05T05:53:50.898Z,7.96
2022-11-05T05:56:20.928Z,7.96
2022-11-05T05:58:51.424Z,7.94
2022-11-05T06:01:25.008Z,7.90
2022-11-05T06:03:52.963Z,7.87
2022-11-05T06:06:21.447Z,7.88
2022-11-05T06:08:51.952Z,7.87
2022-11-05T06:11:19.022Z,7.87
2022-11-05T06:13:46.062Z,7.85
2022-11-05T06:16:13.230Z,7.84
2022-11-05T06:18:40.634Z,7.81
2022-11-05T06:21:09.051Z,7.75
2022-11-05T06:23:37.510Z,7.74
2022-11-05T06:26:07.192Z,7.72
2022-11-05T06:28:35.427Z,7.66
2022-11-05T06:31:03.470Z,7.65
2022-11-05T06:33:31.349Z,7.67
2022-11-05T06:36:00.099Z,7.69
2022-11-05T06:38:27.751Z,7.70
2022-11-05T06:40:58.481Z,7.72
2022-11-05T06:43:27.329Z,7.72
2022-11-05T06:45:55.720Z,7.76
2022-11-05T06:48:23.236Z,7.75
2022-11-05T06:50:50.338Z,7.76
2022-11-05T06:53:18.171Z,7.76
2022-11-05T06:55:45.229Z,7.78
2022-11-05T06:58:12.363Z,7.80
2022-11-05T07:00:39.876Z,7.81
2022-11-05T07:03:09.204Z,7.81
2022-11-05T07:05:45.622Z,7.82
2022-11-05T07:08:12.730Z,7.82
2022-11-05T07:10:39.913Z,7.83
2022-11-05T07:13:08.754Z,7.78
2022-11-05T07:15:37.272Z,7.75
2022-11-05T07:18:07.567Z,7.72
2022-11-05T07:20:35.848Z,7.74
2022-11-05T07:23:11.316Z,7.76
2022-11-05T07:25:43.120Z,7.78
2022-11-05T07:28:11.203Z,7.80
2022-11-05T07:30:39.309Z,7.83
2022-11-05T07:33:06.672Z,7.83
2022-11-05T07:35:34.128Z,7.81
2022-11-05T07:38:01.192Z,7.77
2022-11-05T07:40:30.148Z,7.77
2022-11-05T07:42:59.237Z,7.79
2022-11-05T07:45:27.693Z,7.83
2022-11-05T07:47:58.014Z,7.83
2022-11-05T07:50:27.363Z,7.81
2022-11-05T07:53:00.348Z,7.80
2022-11-05T07:55:28.229Z,7.80
2022-11-05T07:57:55.629Z,7.80
2022-11-05T08:00:24.274Z,7.80
2022-11-05T08:03:07.867Z,7.84
2022-11-05T08:05:39.064Z,7.86
2022-11-05T08:08:07.976Z,7.94
2022-11-05T08:10:36.200Z,8.00
2022-11-05T08:13:07.130Z,8.05
2022-11-05T08:15:34.798Z,8.09
2022-11-05T08:18:15.623Z,8.18
2022-11-05T08:20:44.252Z,8.21
2022-11-05T08:23:11.898Z,8.26
2022-11-05T08:25:39.832Z,8.27
2022-11-05T08:28:10.267Z,8.31
2022-11-05T08:30:37.587Z,8.36
2022-11-05T08:33:07.596Z,8.34
2022-11-05T08:35:36.346Z,8.32
2022-11-05T08:38:05.906Z,8.31
2022-11-05T08:40:35.155Z,8.28
2022-11-05T08:43:06.924Z,8.24
2022-11-05T08:45:38.352Z,8.24
2022-11-05T08:48:08.780Z,8.21
2022-11-05T08:50:37.206Z,8.18
2022-11-05T08:53:06.032Z,8.22
2022-11-05T08:55:34.345Z,8.25
2022-11-05T08:58:07.570Z,8.33
2022-11-05T09:00:36.383Z,8.38
2022-11-05T09:03:05.825Z,8.45
2022-11-05T09:05:38.222Z,8.51
2022-11-05T09:08:18.671Z,8.57
2022-11-05T09:10:47.231Z,8.60
2022-11-05T09:13:18.775Z,8.64
2022-11-05T09:15:47.520Z,8.66
2022-11-05T09:18:15.274Z,8.70
2022-11-05T09:20:42.819Z,8.74
2022-11-05T09:23:11.186Z,8.76
2022-11-05T09:25:39.118Z,8.81
2022-11-05T09:28:18.478Z,8.88
2022-11-05T09:30:48.018Z,8.89
2022-11-05T09:33:16.481Z,8.95
2022-11-05T09:35:43.715Z,8.96
2022-11-05T09:38:10.949Z,9.00
2022-11-05T09:40:44.555Z,9.03
2022-11-05T09:43:20.256Z,9.00
2022-11-05T09:45:49.788Z,9.00
2022-11-05T09:48:18.184Z,8.97
2022-11-05T09:50:46.263Z,8.95
2022-11-05T09:53:17.953Z,8.86
2022-11-05T09:55:50.952Z,8.82
2022-11-05T09:58:40.894Z,8.81
2022-11-05T10:01:15.733Z,8.83
2022-11-05T10:03:46.477Z,8.89
2022-11-05T10:06:20.055Z,8.94
2022-11-05T10:08:51.918Z,9.09
2022-11-05T10:11:25.157Z,9.37
2022-11-05T10:13:56.419Z,9.68
2022-11-05T10:16:31.155Z,9.89
2022-11-05T10:19:09.660Z,9.97
2022-11-05T10:22:04.819Z,10.01
2022-11-05T10:24:25.175Z,10.08
2022-11-05T10:26:53.693Z,10.19
2022-11-05T10:29:29.237Z,10.21
2022-11-05T10:31:57.562Z,10.26
2022-11-05T10:34:27.955Z,10.37
2022-11-05T10:36:55.085Z,10.42
2022-11-05T10:39:23.463Z,10.53
2022-11-05T10:42:38.228Z,10.47
2022-11-05T10:45:18.162Z,10.44
2022-11-05T10:48:09.713Z,10.39
2022-11-05T10:50:36.974Z,10.32
2022-11-05T10:53:27.110Z,10.26
2022-11-05T10:55:54.609Z,10.20
2022-11-05T10:58:27.700Z,10.10
2022-11-05T11:00:54.693Z,10.07
2022-11-05T11:03:44.925Z,10.09
2022-11-05T11:06:31.417Z,10.13
2022-11-05T11:09:02.063Z,10.09
2022-11-05T11:11:32.748Z,10.05
2022-11-05T11:14:09.455Z,10.04
2022-11-05T11:16:42.449Z,9.98
2022-11-05T11:19:31.848Z,9.90
2022-11-05T11:22:05.090Z,9.82
2022-11-05T11:24:39.223Z,9.78
2022-11-05T11:27:27.466Z,9.73
2022-11-05T11:30:00.346Z,9.72
2022-11-05T11:32:35.610Z,9.69
2022-11-05T11:35:04.111Z,9.66
2022-11-05T11:37:34.928Z,9.61
2022-11-05T11:40:29.217Z,9.63
2022-11-05T11:42:58.268Z,9.70
2022-11-05T11:45:44.021Z,9.81
2022-11-05T11:48:17.380Z,9.95
2022-11-05T11:50:49.050Z,10.07
2022-11-05T11:53:22.101Z,10.24
2022-11-05T11:55:55.118Z,10.36
2022-11-05T11:58:23.777Z,10.48
2022-11-05T12:00:57.209Z,10.60
2022-11-05T12:03:46.639Z,10.74
2022-11-05T12:06:27.597Z,10.81
2022-11-05T12:09:30.797Z,10.85
2022-11-05T12:12:09.218Z,10.86
2022-11-05T12:14:46.271Z,10.84
2022-11-05T12:17:52.663Z,10.71
2022-11-05T12:20:38.607Z,10.58
2022-11-05T12:23:24.307Z,10.50
2022-11-05T12:25:57.809Z,10.47
2022-11-05T12:29:12.075Z,10.40
2022-11-05T12:31:44.613Z,10.31
2022-11-05T12:34:24.842Z,10.33
2022-11-05T12:37:30.777Z,10.37
2022-11-05T12:40:29.141Z,10.43
2022-11-05T12:43:27.576Z,10.44
2022-11-05T12:46:17.731Z,10.45
2022-11-05T12:48:45.277Z,10.42
2022-11-05T12:51:38.549Z,10.40
2022-11-05T12:54:20.884Z,10.30
2022-11-05T12:56:52.686Z,10.25
2022-11-05T12:59:58.365Z,10.24
2022-11-05T13:03:19.126Z,10.16
2022-11-05T13:05:56.796Z,10.14
2022-11-05T13:08:32.873Z,10.04
2022-11-05T13:11:21.611Z,9.98
2022-11-05T13:13:59.683Z,9.97
2022-11-05T13:16:38.052Z,10.02
2022-11-05T13:19:39.697Z,10.01
2022-11-05T13:22:15.122Z,9.95
2022-11-05T13:24:49.574Z,9.87
2022-11-05T13:27:22.600Z,9.83
2022-11-05T13:29:52.929Z,9.81
2022-11-05T13:32:36.439Z,9.79
2022-11-05T13:35:05.606Z,9.75
2022-11-05T13:37:59.317Z,9.75
2022-11-05T13:40:47.123Z,9.67
2022-11-05T13:43:34.065Z,9.63
2022-11-05T13:46:42.447Z,9.64
2022-11-05T13:49:30.598Z,9.66
2022-11-05T13:52:28.606Z,9.73
2022-11-05T13:55:13.807Z,9.80
2022-11-05T13:58:00.454Z,9.88
2022-11-05T14:00:29.928Z,9.86
2022-11-05T14:03:02.143Z,9.92
2022-11-05T14:05:33.503Z,9.93
2022-11-05T14:08:08.046Z,9.94
2022-11-05T14:10:45.083Z,9.97
2022-11-05T14:13:19.446Z,10.02
2022-11-05T14:16:00.265Z,10.09
2022-11-05T14:19:11.897Z,10.15
2022-11-05T14:21:59.312Z,10.19
2022-11-05T14:24:43.315Z,10.22
2022-11-05T14:27:13.351Z,10.25
2022-11-05T14:29:41.685Z,10.26
2022-11-05T14:32:20.966Z,10.20
2022-11-05T14:35:12.830Z,10.18
2022-11-05T14:37:41.495Z,10.08
2022-11-05T14:40:33.167Z,10.02
2022-11-05T14:43:03.426Z,9.96
2022-11-05T14:45:39.486Z,9.88
2022-11-05T14:48:35.514Z,9.82
2022-11-05T14:51:02.882Z,9.76
2022-11-05T14:53:35.214Z,9.74
2022-11-05T14:56:09.868Z,9.72
2022-11-05T14:58:39.262Z,9.71
2022-11-05T15:01:15.314Z,9.68
2022-11-05T15:03:46.271Z,9.67
2022-11-05T15:06:28.946Z,9.64
2022-11-05T15:08:59.852Z,9.60
2022-11-05T15:11:37.389Z,9.53
2022-11-05T15:14:22.980Z,9.50
2022-11-05T15:16:54.997Z,9.47
2022-11-05T15:19:25.604Z,9.42
2022-11-05T15:21:54.092Z,9.33
2022-11-05T15:24:21.920Z,9.30
2022-11-05T15:26:52.376Z,9.25
2022-11-05T15:29:24.803Z,9.22
2022-11-05T15:31:53.575Z,9.19
2022-11-05T15:34:31.902Z,9.09
2022-11-05T15:37:04.221Z,8.98
2022-11-05T15:39:40.371Z,8.94
2022-11-05T15:42:22.967Z,8.91
2022-11-05T15:44:55.029Z,8.84
2022-11-05T15:47:31.817Z,8.77
2022-11-05T15:50:03.418Z,8.66
2022-11-05T15:52:36.624Z,8.58
2022-11-05T15:55:09.743Z,8.50
2022-11-05T15:57:40.293Z,8.41
2022-11-05T16:00:16.556Z,8.28
2022-11-05T16:02:44.160Z,8.19
2022-11-05T16:05:13.308Z,8.12
2022-11-05T16:07:45.074Z,8.04
2022-11-05T16:10:29.559Z,7.98
2022-11-05T16:12:57.000Z,7.91
2022-11-05T16:15:26.080Z,7.83
2022-11-05T16:18:00.200Z,7.77
2022-11-05T16:20:35.382Z,7.71
2022-11-05T16:23:05.549Z,7.62
2022-11-05T16:25:43.097Z,7.49
2022-11-05T16:28:23.720Z,7.44
2022-11-05T16:31:01.683Z,7.42
2022-11-05T16:33:47.381Z,7.35
2022-11-05T16:36:14.655Z,7.28
2022-11-05T16:38:41.922Z,7.23
2022-11-05T16:41:17.311Z,7.14
2022-11-05T16:43:55.973Z,7.04
2022-11-05T16:46:24.448Z,6.96
2022-11-05T16:48:51.695Z,6.90
2022-11-05T16:51:23.348Z,6.84
2022-11-05T16:53:53.400Z,6.80
2022-11-05T16:56:22.104Z,6.74
2022-11-05T16:58:49.863Z,6.70
2022-11-05T17:01:19.597Z,6.62
2022-11-05T17:03:56.146Z,6.61
2022-11-05T17:06:26.423Z,6.56
2022-11-05T17:08:53.513Z,6.54
2022-11-05T17:11:21.465Z,6.52
2022-11-05T17:13:48.581Z,6.53
2022-11-05T17:16:17.186Z,6.54
2022-11-05T17:18:44.306Z,6.52
2022-11-05T17:21:12.613Z,6.47
2022-11-05T17:23:39.728Z,6.47
2022-11-05T17:26:09.879Z,6.43
2022-11-05T17:28:37.991Z,6.42
2022-11-05T17:31:07.096Z,6.41
2022-11-05T17:33:34.521Z,6.42
2022-11-05T17:36:08.894Z,6.41
2022-11-05T17:38:36.145Z,6.37
2022-11-05T17:41:13.534Z,6.33
2022-11-05T17:43:40.807Z,6.28
2022-11-05T17:46:09.734Z,6.26
2022-11-05T17:48:37.965Z,6.23
2022-11-05T17:51:09.042Z,6.12
2022-11-05T17:53:37.131Z,6.03
2022-11-05T17:56:13.340Z,5.97
2022-11-05T17:58:41.030Z,5.90
2022-11-05T18:01:09.338Z,5.88
2022-11-05T18:03:36.503Z,5.83
2022-11-05T18:06:06.957Z,5.68
2022-11-05T18:08:34.043Z,5.55
2022-11-05T18:11:01.107Z,5.57
2022-11-05T18:13:28.191Z,5.57
2022-11-05T18:15:55.384Z,5.55
2022-11-05T18:18:22.419Z,5.55
2022-11-05T18:20:49.559Z,5.50
2022-11-05T18:23:16.645Z,5.49
2022-11-05T18:25:44.053Z,5.46
2022-11-05T18:28:11.466Z,5.38
2022-11-05T18:30:39.474Z,5.34
2022-11-05T18:33:09.648Z,5.37
2022-11-05T18:35:42.926Z,5.39
2022-11-05T18:38:10.524Z,5.37
2022-11-05T18:40:37.597Z,5.36
2022-11-05T18:43:04.762Z,5.34
2022-11-05T18:45:33.335Z,5.31
2022-11-05T18:48:01.635Z,5.28
2022-11-05T18:50:29.149Z,5.27
2022-11-05T18:52:56.313Z,5.25
2022-11-05T18:55:24.436Z,5.22
2022-11-05T18:57:51.547Z,5.13
2022-11-05T19:00:18.672Z,5.09
2022-11-05T19:02:45.868Z,5.10
2022-11-05T19:05:29.953Z,5.07
2022-11-05T19:07:57.888Z,5.01
2022-11-05T19:10:25.406Z,5.03
2022-11-05T19:12:52.999Z,5.02
2022-11-05T19:15:20.104Z,5.04
2022-11-05T19:17:47.255Z,5.02
2022-11-05T19:20:14.532Z,5.00
2022-11-05T19:22:41.631Z,4.96
2022-11-05T19:25:08.759Z,4.90
2022-11-05T19:27:36.733Z,4.89
2022-11-05T19:30:05.031Z,4.87
2022-11-05T19:32:32.099Z,4.76
2022-11-05T19:34:59.154Z,4.70
2022-11-05T19:37:26.221Z,4.69
2022-11-05T19:39:53.261Z,4.68
2022-11-05T19:42:20.312Z,4.65
2022-11-05T19:44:47.376Z,4.62
2022-11-05T19:47:14.444Z,4.61
2022-11-05T19:49:41.552Z,4.56
2022-11-05T19:52:08.742Z,4.50
2022-11-05T19:54:35.969Z,4.54
2022-11-05T19:57:03.518Z,4.50
2022-11-05T19:59:30.665Z,4.48
2022-11-05T20:01:57.881Z,4.46
2022-11-05T20:04:25.044Z,4.47
2022-11-05T20:06:52.128Z,4.50
2022-11-05T20:09:22.088Z,4.48
2022-11-05T20:11:54.414Z,4.43
2022-11-05T20:14:23.166Z,4.39
2022-11-05T20:16:50.396Z,4.33
2022-11-05T20:19:19.780Z,4.27
2022-11-05T20:21:47.059Z,4.20
2022-11-05T20:24:24.883Z,4.17
2022-11-05T20:26:56.137Z,4.17
2022-11-05T20:29:24.227Z,4.16
2022-11-05T20:31:52.360Z,4.14
2022-11-05T20:34:19.465Z,4.13
2022-11-05T20:36:46.649Z,4.08
2022-11-05T20:39:13.724Z,4.04
2022-11-05T20:41:41.177Z,4.06
2022-11-05T20:44:08.249Z,4.05
2022-11-05T20:46:35.432Z,4.02
2022-11-05T20:49:02.891Z,4.01
2022-11-05T20:51:30.124Z,3.96
2022-11-05T20:53:59.190Z,3.96
2022-11-05T20:56:29.428Z,3.96
2022-11-05T20:58:58.391Z,3.93
2022-11-05T21:01:26.743Z,3.93
2022-11-05T21:03:54.131Z,3.92
2022-11-05T21:06:21.360Z,3.90
2022-11-05T21:08:50.075Z,3.90
2022-11-05T21:11:18.394Z,3.89
2022-11-05T21:13:45.942Z,3.87
2022-11-05T21:16:17.994Z,3.88
2022-11-05T21:18:46.613Z,3.84
2022-11-05T21:21:17.812Z,3.83
2022-11-05T21:23:45.138Z,3.85
2022-11-05T21:26:13.781Z,3.86
2022-11-05T21:28:41.565Z,3.89
2022-11-05T21:31:09.670Z,3.96
2022-11-05T21:33:37.236Z,3.99
2022-11-05T21:36:09.287Z,4.00
2022-11-05T21:38:36.733Z,3.92
2022-11-05T21:41:04.047Z,3.87
2022-11-05T21:43:31.329Z,3.88
2022-11-05T21:46:02.672Z,3.88
2022-11-05T21:48:30.231Z,3.86
2022-11-05T21:51:15.591Z,3.82
2022-11-05T21:54:00.936Z,3.73
2022-11-05T21:56:47.189Z,3.72
2022-11-05T21:59:35.604Z,3.77
2022-11-05T22:02:03.752Z,3.78
2022-11-05T22:04:37.457Z,3.75
2022-11-05T22:07:06.480Z,3.75
2022-11-05T22:09:34.196Z,3.72
2022-11-05T22:12:01.637Z,3.71
2022-11-05T22:14:28.883Z,3.70
2022-11-05T22:16:56.892Z,3.70
2022-11-05T22:19:24.412Z,3.67
2022-11-05T22:21:51.600Z,3.65
2022-11-05T22:24:19.398Z,3.62
2022-11-05T22:26:47.017Z,3.60
2022-11-05T22:29:14.822Z,3.60
2022-11-05T22:31:42.015Z,3.57
2022-11-05T22:34:10.245Z,3.51
2022-11-05T22:36:37.401Z,3.50
2022-11-05T22:39:05.117Z,3.46
2022-11-05T22:41:32.449Z,3.47
2022-11-05T22:43:59.540Z,3.46
2022-11-05T22:46:27.237Z,3.48
2022-11-05T22:48:55.963Z,3.48
2022-11-05T22:51:25.154Z,3.45
2022-11-05T22:53:52.771Z,3.43
2022-11-05T22:56:21.156Z,3.41
2022-11-05T22:58:48.752Z,3.36
2022-11-05T23:01:16.432Z,3.30
2022-11-05T23:03:45.124Z,3.27
2022-11-05T23:06:32.847Z,3.13
2022-11-05T23:09:19.839Z,2.91
2022-11-05T23:11:49.358Z,2.93
2022-11-05T23:14:16.841Z,2.94
2022-11-05T23:17:02.885Z,2.92
2022-11-05T23:19:49.219Z,2.90
2022-11-05T23:22:47.399Z,2.92
2022-11-05T23:25:17.560Z,2.97
2022-11-05T23:27:46.372Z,2.94
2022-11-05T23:30:19.206Z,2.96
2022-11-05T23:32:46.697Z,2.92
2022-11-05T23:35:14.155Z,2.89
2022-11-05T23:37:59.873Z,2.91
2022-11-05T23:40:29.759Z,2.93
2022-11-05T23:43:16.142Z,2.92
2022-11-05T23:46:03.010Z,2.84
2022-11-05T23:48:35.111Z,2.80
2022-11-05T23:51:07.544Z,2.83
2022-11-05T23:53:36.295Z,2.83
2022-11-05T23:56:09.142Z,2.80
2022-11-05T23:58:37.822Z,2.75
